sensor_id;sensor_type;location;lat;lon;timestamp;P1;durP1;ratioP1;P2;durP2;ratioP2
56333;SDS011;42240;53.626;55.886;2023-04-24T00:00:38;0.30;;;0.30;;
56333;SDS011;42240;53.626;55.886;2023-04-24T00:02:12;0.30;;;0.30;;
56333;SDS011;42240;53.626;55.886;2023-04-24T00:03:46;0.25;;;0.25;;
56333;SDS011;42240;53.626;55.886;2023-04-24T00:05:19;0.30;;;0.30;;
56333;SDS011;42240;53.626;55.886;2023-04-24T00:06:53;0.20;;;0.20;;
56333;SDS011;42240;53.626;55.886;2023-04-24T00:08:26;0.30;;;0.30;;
56333;SDS011;42240;53.626;55.886;2023-04-24T00:11:34;0.30;;;0.30;;
56333;SDS011;42240;53.626;55.886;2023-04-24T00:13:07;0.30;;;0.30;;
56333;SDS011;42240;53.626;55.886;2023-04-24T00:14:40;0.20;;;0.20;;
56333;SDS011;42240;53.626;55.886;2023-04-24T00:17:46;0.30;;;0.30;;
56333;SDS011;42240;53.626;55.886;2023-04-24T00:19:19;0.30;;;0.30;;
56333;SDS011;42240;53.626;55.886;2023-04-24T00:20:53;0.30;;;0.30;;
56333;SDS011;42240;53.626;55.886;2023-04-24T00:25:33;0.30;;;0.30;;
56333;SDS011;42240;53.626;55.886;2023-04-24T00:27:05;0.30;;;0.30;;
56333;SDS011;42240;53.626;55.886;2023-04-24T00:28:39;0.30;;;0.30;;
56333;SDS011;42240;53.626;55.886;2023-04-24T00:30:12;0.30;;;0.30;;
56333;SDS011;42240;53.626;55.886;2023-04-24T00:31:45;0.22;;;0.22;;
56333;SDS011;42240;53.626;55.886;2023-04-24T00:33:19;0.30;;;0.30;;
56333;SDS011;42240;53.626;55.886;2023-04-24T00:34:52;0.30;;;0.30;;
56333;SDS011;42240;53.626;55.886;2023-04-24T00:36:25;0.30;;;0.30;;
56333;SDS011;42240;53.626;55.886;2023-04-24T00:37:59;0.30;;;0.30;;
56333;SDS011;42240;53.626;55.886;2023-04-24T00:39:32;0.25;;;0.25;;
56333;SDS011;42240;53.626;55.886;2023-04-24T00:41:05;0.30;;;0.30;;
56333;SDS011;42240;53.626;55.886;2023-04-24T00:42:40;0.30;;;0.30;;
56333;SDS011;42240;53.626;55.886;2023-04-24T00:44:14;0.30;;;0.30;;
56333;SDS011;42240;53.626;55.886;2023-04-24T00:45:47;0.30;;;0.30;;
56333;SDS011;42240;53.626;55.886;2023-04-24T00:47:21;0.30;;;0.30;;
56333;SDS011;42240;53.626;55.886;2023-04-24T00:48:55;0.30;;;0.30;;
56333;SDS011;42240;53.626;55.886;2023-04-24T00:50:28;0.20;;;0.20;;
56333;SDS011;42240;53.626;55.886;2023-04-24T00:52:03;0.28;;;0.28;;
56333;SDS011;42240;53.626;55.886;2023-04-24T00:53:39;0.30;;;0.30;;
56333;SDS011;42240;53.626;55.886;2023-04-24T00:55:13;0.22;;;0.22;;
56333;SDS011;42240;53.626;55.886;2023-04-24T00:58:18;0.30;;;0.30;;
56333;SDS011;42240;53.626;55.886;2023-04-24T00:59:52;0.30;;;0.30;;
56333;SDS011;42240;53.626;55.886;2023-04-24T01:01:25;0.20;;;0.20;;
56333;SDS011;42240;53.626;55.886;2023-04-24T01:02:59;0.30;;;0.30;;
56333;SDS011;42240;53.626;55.886;2023-04-24T01:04:38;0.30;;;0.30;;
56333;SDS011;42240;53.626;55.886;2023-04-24T01:06:12;0.30;;;0.30;;
56333;SDS011;42240;53.626;55.886;2023-04-24T01:07:47;0.20;;;0.20;;
56333;SDS011;42240;53.626;55.886;2023-04-24T01:09:21;0.30;;;0.30;;
56333;SDS011;42240;53.626;55.886;2023-04-24T01:10:57;0.30;;;0.30;;
56333;SDS011;42240;53.626;55.886;2023-04-24T01:12:30;0.30;;;0.30;;
56333;SDS011;42240;53.626;55.886;2023-04-24T01:14:03;0.30;;;0.30;;
56333;SDS011;42240;53.626;55.886;2023-04-24T01:15:36;0.30;;;0.30;;
56333;SDS011;42240;53.626;55.886;2023-04-24T01:18:43;0.30;;;0.30;;
56333;SDS011;42240;53.626;55.886;2023-04-24T01:20:16;0.28;;;0.28;;
56333;SDS011;42240;53.626;55.886;2023-04-24T01:21:52;0.30;;;0.30;;
56333;SDS011;42240;53.626;55.886;2023-04-24T01:23:26;0.20;;;0.20;;
56333;SDS011;42240;53.626;55.886;2023-04-24T01:25:00;0.30;;;0.30;;
56333;SDS011;42240;53.626;55.886;2023-04-24T01:26:35;0.20;;;0.20;;
56333;SDS011;42240;53.626;55.886;2023-04-24T01:28:08;0.20;;;0.20;;
56333;SDS011;42240;53.626;55.886;2023-04-24T01:29:43;0.20;;;0.20;;
56333;SDS011;42240;53.626;55.886;2023-04-24T01:31:16;0.20;;;0.20;;
56333;SDS011;42240;53.626;55.886;2023-04-24T01:32:50;0.30;;;0.30;;
56333;SDS011;42240;53.626;55.886;2023-04-24T01:34:24;0.20;;;0.20;;
56333;SDS011;42240;53.626;55.886;2023-04-24T01:35:57;0.30;;;0.30;;
56333;SDS011;42240;53.626;55.886;2023-04-24T01:37:30;0.20;;;0.20;;
56333;SDS011;42240;53.626;55.886;2023-04-24T01:39:05;0.20;;;0.20;;
56333;SDS011;42240;53.626;55.886;2023-04-24T01:40:38;0.20;;;0.20;;
56333;SDS011;42240;53.626;55.886;2023-04-24T01:42:12;0.30;;;0.30;;
56333;SDS011;42240;53.626;55.886;2023-04-24T01:43:46;0.20;;;0.20;;
56333;SDS011;42240;53.626;55.886;2023-04-24T01:45:19;0.20;;;0.20;;
56333;SDS011;42240;53.626;55.886;2023-04-24T01:46:52;0.20;;;0.20;;
56333;SDS011;42240;53.626;55.886;2023-04-24T01:48:28;0.20;;;0.20;;
56333;SDS011;42240;53.626;55.886;2023-04-24T01:50:02;0.20;;;0.20;;
56333;SDS011;42240;53.626;55.886;2023-04-24T01:51:37;0.20;;;0.20;;
56333;SDS011;42240;53.626;55.886;2023-04-24T01:53:10;0.20;;;0.20;;
56333;SDS011;42240;53.626;55.886;2023-04-24T01:54:44;0.20;;;0.20;;
56333;SDS011;42240;53.626;55.886;2023-04-24T01:56:17;0.20;;;0.20;;
56333;SDS011;42240;53.626;55.886;2023-04-24T01:57:51;0.20;;;0.20;;
56333;SDS011;42240;53.626;55.886;2023-04-24T01:59:26;0.20;;;0.20;;
56333;SDS011;42240;53.626;55.886;2023-04-24T02:01:01;0.15;;;0.15;;
56333;SDS011;42240;53.626;55.886;2023-04-24T02:02:34;0.20;;;0.20;;
56333;SDS011;42240;53.626;55.886;2023-04-24T02:04:08;0.13;;;0.13;;
56333;SDS011;42240;53.626;55.886;2023-04-24T02:05:43;0.10;;;0.10;;
56333;SDS011;42240;53.626;55.886;2023-04-24T02:07:17;0.10;;;0.10;;
56333;SDS011;42240;53.626;55.886;2023-04-24T02:10:23;0.10;;;0.10;;
56333;SDS011;42240;53.626;55.886;2023-04-24T02:11:57;0.10;;;0.10;;
56333;SDS011;42240;53.626;55.886;2023-04-24T02:13:30;0.10;;;0.10;;
56333;SDS011;42240;53.626;55.886;2023-04-24T02:15:05;0.10;;;0.10;;
56333;SDS011;42240;53.626;55.886;2023-04-24T02:16:41;0.10;;;0.10;;
56333;SDS011;42240;53.626;55.886;2023-04-24T02:18:16;0.10;;;0.10;;
56333;SDS011;42240;53.626;55.886;2023-04-24T02:21:21;0.10;;;0.10;;
56333;SDS011;42240;53.626;55.886;2023-04-24T02:24:27;0.10;;;0.10;;
56333;SDS011;42240;53.626;55.886;2023-04-24T02:26:00;0.10;;;0.10;;
56333;SDS011;42240;53.626;55.886;2023-04-24T02:29:10;0.10;;;0.10;;
56333;SDS011;42240;53.626;55.886;2023-04-24T02:30:43;0.05;;;0.05;;
56333;SDS011;42240;53.626;55.886;2023-04-24T02:33:49;0.10;;;0.10;;
56333;SDS011;42240;53.626;55.886;2023-04-24T02:35:22;0.10;;;0.10;;
56333;SDS011;42240;53.626;55.886;2023-04-24T02:36:55;0.10;;;0.10;;
56333;SDS011;42240;53.626;55.886;2023-04-24T02:38:28;0.03;;;0.03;;
56333;SDS011;42240;53.626;55.886;2023-04-24T02:40:01;0.10;;;0.10;;
56333;SDS011;42240;53.626;55.886;2023-04-24T02:41:35;0.10;;;0.10;;
56333;SDS011;42240;53.626;55.886;2023-04-24T02:43:09;0.00;;;0.00;;
56333;SDS011;42240;53.626;55.886;2023-04-24T02:44:42;0.00;;;0.00;;
56333;SDS011;42240;53.626;55.886;2023-04-24T02:46:15;0.00;;;0.00;;
56333;SDS011;42240;53.626;55.886;2023-04-24T02:47:49;0.00;;;0.00;;
56333;SDS011;42240;53.626;55.886;2023-04-24T02:49:22;0.08;;;0.08;;
56333;SDS011;42240;53.626;55.886;2023-04-24T02:52:28;0.10;;;0.10;;
56333;SDS011;42240;53.626;55.886;2023-04-24T02:54:01;0.10;;;0.10;;
56333;SDS011;42240;53.626;55.886;2023-04-24T02:55:34;0.00;;;0.00;;
56333;SDS011;42240;53.626;55.886;2023-04-24T02:57:08;0.00;;;0.00;;
56333;SDS011;42240;53.626;55.886;2023-04-24T02:58:44;0.10;;;0.10;;
56333;SDS011;42240;53.626;55.886;2023-04-24T03:00:17;0.00;;;0.00;;
56333;SDS011;42240;53.626;55.886;2023-04-24T03:01:51;0.00;;;0.00;;
56333;SDS011;42240;53.626;55.886;2023-04-24T03:03:24;0.00;;;0.00;;
56333;SDS011;42240;53.626;55.886;2023-04-24T03:04:57;0.00;;;0.00;;
56333;SDS011;42240;53.626;55.886;2023-04-24T03:08:04;0.00;;;0.00;;
56333;SDS011;42240;53.626;55.886;2023-04-24T03:09:38;0.00;;;0.00;;
56333;SDS011;42240;53.626;55.886;2023-04-24T03:12:46;0.00;;;0.00;;
56333;SDS011;42240;53.626;55.886;2023-04-24T03:14:19;0.00;;;0.00;;
56333;SDS011;42240;53.626;55.886;2023-04-24T03:15:52;0.00;;;0.00;;
56333;SDS011;42240;53.626;55.886;2023-04-24T03:17:26;0.00;;;0.00;;
56333;SDS011;42240;53.626;55.886;2023-04-24T03:18:59;0.00;;;0.00;;
56333;SDS011;42240;53.626;55.886;2023-04-24T03:20:35;0.00;;;0.00;;
56333;SDS011;42240;53.626;55.886;2023-04-24T03:22:09;0.00;;;0.00;;
56333;SDS011;42240;53.626;55.886;2023-04-24T03:23:44;0.00;;;0.00;;
56333;SDS011;42240;53.626;55.886;2023-04-24T03:25:17;0.00;;;0.00;;
56333;SDS011;42240;53.626;55.886;2023-04-24T03:26:51;0.00;;;0.00;;
56333;SDS011;42240;53.626;55.886;2023-04-24T03:28:56;0.00;;;0.00;;
56333;SDS011;42240;53.626;55.886;2023-04-24T03:30:30;0.00;;;0.00;;
56333;SDS011;42240;53.626;55.886;2023-04-24T03:32:05;0.00;;;0.00;;
56333;SDS011;42240;53.626;55.886;2023-04-24T03:33:39;0.00;;;0.00;;
56333;SDS011;42240;53.626;55.886;2023-04-24T03:35:12;0.00;;;0.00;;
56333;SDS011;42240;53.626;55.886;2023-04-24T03:36:46;0.00;;;0.00;;
56333;SDS011;42240;53.626;55.886;2023-04-24T03:38:22;0.00;;;0.00;;
56333;SDS011;42240;53.626;55.886;2023-04-24T03:40:05;0.00;;;0.00;;
56333;SDS011;42240;53.626;55.886;2023-04-24T03:41:40;0.00;;;0.00;;
56333;SDS011;42240;53.626;55.886;2023-04-24T03:43:27;0.00;;;0.00;;
56333;SDS011;42240;53.626;55.886;2023-04-24T03:45:05;0.00;;;0.00;;
56333;SDS011;42240;53.626;55.886;2023-04-24T03:46:41;0.00;;;0.00;;
56333;SDS011;42240;53.626;55.886;2023-04-24T03:48:14;0.00;;;0.00;;
56333;SDS011;42240;53.626;55.886;2023-04-24T03:49:47;0.00;;;0.00;;
56333;SDS011;42240;53.626;55.886;2023-04-24T03:51:21;0.00;;;0.00;;
56333;SDS011;42240;53.626;55.886;2023-04-24T03:52:57;0.00;;;0.00;;
56333;SDS011;42240;53.626;55.886;2023-04-24T03:54:43;0.00;;;0.00;;
56333;SDS011;42240;53.626;55.886;2023-04-24T03:56:16;0.00;;;0.00;;
56333;SDS011;42240;53.626;55.886;2023-04-24T03:57:50;0.00;;;0.00;;
56333;SDS011;42240;53.626;55.886;2023-04-24T03:59:26;0.00;;;0.00;;
56333;SDS011;42240;53.626;55.886;2023-04-24T04:01:25;0.00;;;0.00;;
56333;SDS011;42240;53.626;55.886;2023-04-24T04:03:07;0.00;;;0.00;;
56333;SDS011;42240;53.626;55.886;2023-04-24T04:04:41;0.00;;;0.00;;
56333;SDS011;42240;53.626;55.886;2023-04-24T04:06:15;0.00;;;0.00;;
56333;SDS011;42240;53.626;55.886;2023-04-24T04:07:48;0.00;;;0.00;;
56333;SDS011;42240;53.626;55.886;2023-04-24T04:09:21;0.00;;;0.00;;
56333;SDS011;42240;53.626;55.886;2023-04-24T04:10:54;0.00;;;0.00;;
56333;SDS011;42240;53.626;55.886;2023-04-24T04:12:27;0.00;;;0.00;;
56333;SDS011;42240;53.626;55.886;2023-04-24T04:14:01;0.00;;;0.00;;
56333;SDS011;42240;53.626;55.886;2023-04-24T04:15:34;0.00;;;0.00;;
56333;SDS011;42240;53.626;55.886;2023-04-24T04:17:08;0.00;;;0.00;;
56333;SDS011;42240;53.626;55.886;2023-04-24T04:18:41;0.00;;;0.00;;
56333;SDS011;42240;53.626;55.886;2023-04-24T04:20:15;0.00;;;0.00;;
56333;SDS011;42240;53.626;55.886;2023-04-24T04:21:48;0.00;;;0.00;;
56333;SDS011;42240;53.626;55.886;2023-04-24T04:23:37;0.00;;;0.00;;
56333;SDS011;42240;53.626;55.886;2023-04-24T04:25:19;0.00;;;0.00;;
56333;SDS011;42240;53.626;55.886;2023-04-24T04:26:52;0.00;;;0.00;;
56333;SDS011;42240;53.626;55.886;2023-04-24T04:28:40;0.00;;;0.00;;
56333;SDS011;42240;53.626;55.886;2023-04-24T04:30:13;0.00;;;0.00;;
56333;SDS011;42240;53.626;55.886;2023-04-24T04:31:53;0.00;;;0.00;;
56333;SDS011;42240;53.626;55.886;2023-04-24T04:33:28;0.00;;;0.00;;
56333;SDS011;42240;53.626;55.886;2023-04-24T04:35:01;0.00;;;0.00;;
56333;SDS011;42240;53.626;55.886;2023-04-24T04:36:38;0.00;;;0.00;;
56333;SDS011;42240;53.626;55.886;2023-04-24T04:38:26;0.00;;;0.00;;
56333;SDS011;42240;53.626;55.886;2023-04-24T04:40:10;0.00;;;0.00;;
56333;SDS011;42240;53.626;55.886;2023-04-24T04:41:54;0.00;;;0.00;;
56333;SDS011;42240;53.626;55.886;2023-04-24T04:43:31;0.00;;;0.00;;
56333;SDS011;42240;53.626;55.886;2023-04-24T04:45:05;0.00;;;0.00;;
56333;SDS011;42240;53.626;55.886;2023-04-24T04:46:52;0.00;;;0.00;;
56333;SDS011;42240;53.626;55.886;2023-04-24T04:48:30;0.00;;;0.00;;
56333;SDS011;42240;53.626;55.886;2023-04-24T04:50:06;0.00;;;0.00;;
56333;SDS011;42240;53.626;55.886;2023-04-24T04:51:39;0.00;;;0.00;;
56333;SDS011;42240;53.626;55.886;2023-04-24T04:53:15;0.00;;;0.00;;
56333;SDS011;42240;53.626;55.886;2023-04-24T04:54:48;0.00;;;0.00;;
56333;SDS011;42240;53.626;55.886;2023-04-24T04:56:21;0.00;;;0.00;;
56333;SDS011;42240;53.626;55.886;2023-04-24T04:57:54;0.00;;;0.00;;
56333;SDS011;42240;53.626;55.886;2023-04-24T04:59:28;0.00;;;0.00;;
56333;SDS011;42240;53.626;55.886;2023-04-24T05:01:07;0.00;;;0.00;;
56333;SDS011;42240;53.626;55.886;2023-04-24T05:02:46;0.00;;;0.00;;
56333;SDS011;42240;53.626;55.886;2023-04-24T05:04:20;0.00;;;0.00;;
56333;SDS011;42240;53.626;55.886;2023-04-24T05:05:53;0.00;;;0.00;;
56333;SDS011;42240;53.626;55.886;2023-04-24T05:07:26;0.00;;;0.00;;
56333;SDS011;42240;53.626;55.886;2023-04-24T05:09:01;0.00;;;0.00;;
56333;SDS011;42240;53.626;55.886;2023-04-24T05:10:49;0.00;;;0.00;;
56333;SDS011;42240;53.626;55.886;2023-04-24T05:12:22;0.00;;;0.00;;
56333;SDS011;42240;53.626;55.886;2023-04-24T05:13:57;0.00;;;0.00;;
56333;SDS011;42240;53.626;55.886;2023-04-24T05:15:38;0.00;;;0.00;;
56333;SDS011;42240;53.626;55.886;2023-04-24T05:17:11;0.00;;;0.00;;
56333;SDS011;42240;53.626;55.886;2023-04-24T05:18:44;0.00;;;0.00;;
56333;SDS011;42240;53.626;55.886;2023-04-24T05:20:21;0.00;;;0.00;;
56333;SDS011;42240;53.626;55.886;2023-04-24T05:21:54;0.00;;;0.00;;
56333;SDS011;42240;53.626;55.886;2023-04-24T05:23:27;0.00;;;0.00;;
56333;SDS011;42240;53.626;55.886;2023-04-24T05:25:01;0.00;;;0.00;;
56333;SDS011;42240;53.626;55.886;2023-04-24T05:27:04;0.00;;;0.00;;
56333;SDS011;42240;53.626;55.886;2023-04-24T05:28:42;0.00;;;0.00;;
56333;SDS011;42240;53.626;55.886;2023-04-24T05:30:19;0.00;;;0.00;;
56333;SDS011;42240;53.626;55.886;2023-04-24T05:31:52;0.00;;;0.00;;
56333;SDS011;42240;53.626;55.886;2023-04-24T05:33:25;0.00;;;0.00;;
56333;SDS011;42240;53.626;55.886;2023-04-24T05:34:58;0.00;;;0.00;;
56333;SDS011;42240;53.626;55.886;2023-04-24T05:36:31;0.00;;;0.00;;
56333;SDS011;42240;53.626;55.886;2023-04-24T05:38:04;0.00;;;0.00;;
56333;SDS011;42240;53.626;55.886;2023-04-24T05:39:37;0.00;;;0.00;;
56333;SDS011;42240;53.626;55.886;2023-04-24T05:41:11;0.00;;;0.00;;
56333;SDS011;42240;53.626;55.886;2023-04-24T05:42:44;0.00;;;0.00;;
56333;SDS011;42240;53.626;55.886;2023-04-24T05:44:17;0.00;;;0.00;;
56333;SDS011;42240;53.626;55.886;2023-04-24T05:45:50;0.00;;;0.00;;
56333;SDS011;42240;53.626;55.886;2023-04-24T05:47:24;0.00;;;0.00;;
56333;SDS011;42240;53.626;55.886;2023-04-24T05:48:59;0.00;;;0.00;;
56333;SDS011;42240;53.626;55.886;2023-04-24T05:50:32;0.00;;;0.00;;
56333;SDS011;42240;53.626;55.886;2023-04-24T05:52:07;0.00;;;0.00;;
56333;SDS011;42240;53.626;55.886;2023-04-24T05:53:43;0.00;;;0.00;;
56333;SDS011;42240;53.626;55.886;2023-04-24T05:55:16;0.00;;;0.00;;
56333;SDS011;42240;53.626;55.886;2023-04-24T05:56:49;0.00;;;0.00;;
56333;SDS011;42240;53.626;55.886;2023-04-24T05:58:33;0.00;;;0.00;;
56333;SDS011;42240;53.626;55.886;2023-04-24T06:00:07;0.00;;;0.00;;
56333;SDS011;42240;53.626;55.886;2023-04-24T06:01:53;0.00;;;0.00;;
56333;SDS011;42240;53.626;55.886;2023-04-24T06:03:28;0.00;;;0.00;;
56333;SDS011;42240;53.626;55.886;2023-04-24T06:05:01;0.00;;;0.00;;
56333;SDS011;42240;53.626;55.886;2023-04-24T06:06:35;0.00;;;0.00;;
56333;SDS011;42240;53.626;55.886;2023-04-24T06:08:09;0.00;;;0.00;;
56333;SDS011;42240;53.626;55.886;2023-04-24T06:09:44;0.00;;;0.00;;
56333;SDS011;42240;53.626;55.886;2023-04-24T06:11:17;0.00;;;0.00;;
56333;SDS011;42240;53.626;55.886;2023-04-24T06:12:51;0.00;;;0.00;;
56333;SDS011;42240;53.626;55.886;2023-04-24T06:14:25;0.00;;;0.00;;
56333;SDS011;42240;53.626;55.886;2023-04-24T06:16:22;0.00;;;0.00;;
56333;SDS011;42240;53.626;55.886;2023-04-24T06:18:02;0.00;;;0.00;;
56333;SDS011;42240;53.626;55.886;2023-04-24T06:19:35;0.00;;;0.00;;
56333;SDS011;42240;53.626;55.886;2023-04-24T06:21:08;0.00;;;0.00;;
56333;SDS011;42240;53.626;55.886;2023-04-24T06:22:41;0.00;;;0.00;;
56333;SDS011;42240;53.626;55.886;2023-04-24T06:24:15;0.00;;;0.00;;
56333;SDS011;42240;53.626;55.886;2023-04-24T06:25:49;0.00;;;0.00;;
56333;SDS011;42240;53.626;55.886;2023-04-24T06:27:22;0.00;;;0.00;;
56333;SDS011;42240;53.626;55.886;2023-04-24T06:28:55;0.00;;;0.00;;
56333;SDS011;42240;53.626;55.886;2023-04-24T06:30:29;0.00;;;0.00;;
56333;SDS011;42240;53.626;55.886;2023-04-24T06:32:02;0.00;;;0.00;;
56333;SDS011;42240;53.626;55.886;2023-04-24T06:33:37;0.00;;;0.00;;
56333;SDS011;42240;53.626;55.886;2023-04-24T06:35:10;0.00;;;0.00;;
56333;SDS011;42240;53.626;55.886;2023-04-24T06:36:46;0.00;;;0.00;;
56333;SDS011;42240;53.626;55.886;2023-04-24T06:38:19;0.00;;;0.00;;
56333;SDS011;42240;53.626;55.886;2023-04-24T06:39:53;0.00;;;0.00;;
56333;SDS011;42240;53.626;55.886;2023-04-24T06:41:26;0.00;;;0.00;;
56333;SDS011;42240;53.626;55.886;2023-04-24T06:42:59;0.00;;;0.00;;
56333;SDS011;42240;53.626;55.886;2023-04-24T06:44:35;0.00;;;0.00;;
56333;SDS011;42240;53.626;55.886;2023-04-24T06:46:13;0.00;;;0.00;;
56333;SDS011;42240;53.626;55.886;2023-04-24T06:47:46;0.00;;;0.00;;
56333;SDS011;42240;53.626;55.886;2023-04-24T06:49:19;0.00;;;0.00;;
56333;SDS011;42240;53.626;55.886;2023-04-24T06:50:52;0.00;;;0.00;;
56333;SDS011;42240;53.626;55.886;2023-04-24T06:52:26;0.00;;;0.00;;
56333;SDS011;42240;53.626;55.886;2023-04-24T06:53:58;0.00;;;0.00;;
56333;SDS011;42240;53.626;55.886;2023-04-24T06:55:31;0.00;;;0.00;;
56333;SDS011;42240;53.626;55.886;2023-04-24T06:57:04;0.00;;;0.00;;
56333;SDS011;42240;53.626;55.886;2023-04-24T06:58:37;0.00;;;0.00;;
56333;SDS011;42240;53.626;55.886;2023-04-24T07:00:10;0.00;;;0.00;;
56333;SDS011;42240;53.626;55.886;2023-04-24T07:01:44;0.00;;;0.00;;
56333;SDS011;42240;53.626;55.886;2023-04-24T07:03:17;0.00;;;0.00;;
56333;SDS011;42240;53.626;55.886;2023-04-24T07:04:51;0.00;;;0.00;;
56333;SDS011;42240;53.626;55.886;2023-04-24T07:06:25;0.00;;;0.00;;
56333;SDS011;42240;53.626;55.886;2023-04-24T07:07:59;0.00;;;0.00;;
56333;SDS011;42240;53.626;55.886;2023-04-24T07:09:32;0.00;;;0.00;;
56333;SDS011;42240;53.626;55.886;2023-04-24T07:11:07;0.00;;;0.00;;
56333;SDS011;42240;53.626;55.886;2023-04-24T07:12:40;0.00;;;0.00;;
56333;SDS011;42240;53.626;55.886;2023-04-24T07:14:13;0.00;;;0.00;;
56333;SDS011;42240;53.626;55.886;2023-04-24T07:15:47;0.00;;;0.00;;
56333;SDS011;42240;53.626;55.886;2023-04-24T07:17:23;0.00;;;0.00;;
56333;SDS011;42240;53.626;55.886;2023-04-24T07:18:56;0.00;;;0.00;;
56333;SDS011;42240;53.626;55.886;2023-04-24T07:20:29;0.00;;;0.00;;
56333;SDS011;42240;53.626;55.886;2023-04-24T07:22:03;0.00;;;0.00;;
56333;SDS011;42240;53.626;55.886;2023-04-24T07:23:36;0.00;;;0.00;;
56333;SDS011;42240;53.626;55.886;2023-04-24T07:25:09;0.00;;;0.00;;
56333;SDS011;42240;53.626;55.886;2023-04-24T07:26:42;0.00;;;0.00;;
56333;SDS011;42240;53.626;55.886;2023-04-24T07:28:15;0.00;;;0.00;;
56333;SDS011;42240;53.626;55.886;2023-04-24T07:29:50;0.00;;;0.00;;
56333;SDS011;42240;53.626;55.886;2023-04-24T07:31:23;0.00;;;0.00;;
56333;SDS011;42240;53.626;55.886;2023-04-24T07:32:56;0.00;;;0.00;;
56333;SDS011;42240;53.626;55.886;2023-04-24T07:34:29;0.00;;;0.00;;
56333;SDS011;42240;53.626;55.886;2023-04-24T07:36:03;0.00;;;0.00;;
56333;SDS011;42240;53.626;55.886;2023-04-24T07:37:36;0.00;;;0.00;;
56333;SDS011;42240;53.626;55.886;2023-04-24T07:39:09;0.00;;;0.00;;
56333;SDS011;42240;53.626;55.886;2023-04-24T07:40:42;0.00;;;0.00;;
56333;SDS011;42240;53.626;55.886;2023-04-24T07:42:17;0.00;;;0.00;;
56333;SDS011;42240;53.626;55.886;2023-04-24T07:43:50;0.00;;;0.00;;
56333;SDS011;42240;53.626;55.886;2023-04-24T07:45:23;0.00;;;0.00;;
56333;SDS011;42240;53.626;55.886;2023-04-24T07:46:58;0.00;;;0.00;;
56333;SDS011;42240;53.626;55.886;2023-04-24T07:48:31;0.00;;;0.00;;
56333;SDS011;42240;53.626;55.886;2023-04-24T07:50:04;0.00;;;0.00;;
56333;SDS011;42240;53.626;55.886;2023-04-24T07:51:38;0.00;;;0.00;;
56333;SDS011;42240;53.626;55.886;2023-04-24T07:53:11;0.00;;;0.00;;
56333;SDS011;42240;53.626;55.886;2023-04-24T07:54:44;0.00;;;0.00;;
56333;SDS011;42240;53.626;55.886;2023-04-24T07:56:17;0.00;;;0.00;;
56333;SDS011;42240;53.626;55.886;2023-04-24T07:57:50;0.00;;;0.00;;
56333;SDS011;42240;53.626;55.886;2023-04-24T07:59:23;0.00;;;0.00;;
56333;SDS011;42240;53.626;55.886;2023-04-24T08:00:56;0.00;;;0.00;;
56333;SDS011;42240;53.626;55.886;2023-04-24T08:02:30;0.00;;;0.00;;
56333;SDS011;42240;53.626;55.886;2023-04-24T08:04:03;0.00;;;0.00;;
56333;SDS011;42240;53.626;55.886;2023-04-24T08:05:36;0.00;;;0.00;;
56333;SDS011;42240;53.626;55.886;2023-04-24T08:07:12;0.00;;;0.00;;
56333;SDS011;42240;53.626;55.886;2023-04-24T08:08:45;0.00;;;0.00;;
56333;SDS011;42240;53.626;55.886;2023-04-24T08:10:18;0.00;;;0.00;;
56333;SDS011;42240;53.626;55.886;2023-04-24T08:13:25;0.00;;;0.00;;
56333;SDS011;42240;53.626;55.886;2023-04-24T08:14:58;0.00;;;0.00;;
56333;SDS011;42240;53.626;55.886;2023-04-24T08:16:32;0.00;;;0.00;;
56333;SDS011;42240;53.626;55.886;2023-04-24T08:18:06;0.00;;;0.00;;
56333;SDS011;42240;53.626;55.886;2023-04-24T08:19:40;0.00;;;0.00;;
56333;SDS011;42240;53.626;55.886;2023-04-24T08:21:20;0.00;;;0.00;;
56333;SDS011;42240;53.626;55.886;2023-04-24T08:22:54;0.00;;;0.00;;
56333;SDS011;42240;53.626;55.886;2023-04-24T08:24:27;0.00;;;0.00;;
56333;SDS011;42240;53.626;55.886;2023-04-24T08:26:00;0.00;;;0.00;;
56333;SDS011;42240;53.626;55.886;2023-04-24T08:27:33;0.00;;;0.00;;
56333;SDS011;42240;53.626;55.886;2023-04-24T08:29:06;0.00;;;0.00;;
56333;SDS011;42240;53.626;55.886;2023-04-24T08:30:40;0.00;;;0.00;;
56333;SDS011;42240;53.626;55.886;2023-04-24T08:32:13;0.00;;;0.00;;
56333;SDS011;42240;53.626;55.886;2023-04-24T08:33:46;0.00;;;0.00;;
56333;SDS011;42240;53.626;55.886;2023-04-24T08:35:19;0.00;;;0.00;;
56333;SDS011;42240;53.626;55.886;2023-04-24T08:36:52;0.00;;;0.00;;
56333;SDS011;42240;53.626;55.886;2023-04-24T08:38:26;0.00;;;0.00;;
56333;SDS011;42240;53.626;55.886;2023-04-24T08:39:59;0.00;;;0.00;;
56333;SDS011;42240;53.626;55.886;2023-04-24T08:41:33;0.00;;;0.00;;
56333;SDS011;42240;53.626;55.886;2023-04-24T08:43:06;0.00;;;0.00;;
56333;SDS011;42240;53.626;55.886;2023-04-24T08:44:42;0.00;;;0.00;;
56333;SDS011;42240;53.626;55.886;2023-04-24T08:46:17;0.00;;;0.00;;
56333;SDS011;42240;53.626;55.886;2023-04-24T08:47:53;0.00;;;0.00;;
56333;SDS011;42240;53.626;55.886;2023-04-24T08:49:29;0.00;;;0.00;;
56333;SDS011;42240;53.626;55.886;2023-04-24T08:51:03;0.00;;;0.00;;
56333;SDS011;42240;53.626;55.886;2023-04-24T08:52:40;0.00;;;0.00;;
56333;SDS011;42240;53.626;55.886;2023-04-24T08:54:15;0.00;;;0.00;;
56333;SDS011;42240;53.626;55.886;2023-04-24T08:55:48;0.00;;;0.00;;
56333;SDS011;42240;53.626;55.886;2023-04-24T08:57:23;0.00;;;0.00;;
56333;SDS011;42240;53.626;55.886;2023-04-24T08:58:58;0.00;;;0.00;;
56333;SDS011;42240;53.626;55.886;2023-04-24T09:00:32;0.00;;;0.00;;
56333;SDS011;42240;53.626;55.886;2023-04-24T09:02:05;0.00;;;0.00;;
56333;SDS011;42240;53.626;55.886;2023-04-24T09:03:42;0.00;;;0.00;;
56333;SDS011;42240;53.626;55.886;2023-04-24T09:05:18;0.00;;;0.00;;
56333;SDS011;42240;53.626;55.886;2023-04-24T09:06:58;0.00;;;0.00;;
56333;SDS011;42240;53.626;55.886;2023-04-24T09:08:32;0.00;;;0.00;;
56333;SDS011;42240;53.626;55.886;2023-04-24T09:10:06;0.00;;;0.00;;
56333;SDS011;42240;53.626;55.886;2023-04-24T09:11:40;0.00;;;0.00;;
56333;SDS011;42240;53.626;55.886;2023-04-24T09:13:14;0.00;;;0.00;;
56333;SDS011;42240;53.626;55.886;2023-04-24T09:14:50;0.00;;;0.00;;
56333;SDS011;42240;53.626;55.886;2023-04-24T09:16:25;0.00;;;0.00;;
56333;SDS011;42240;53.626;55.886;2023-04-24T09:17:58;0.00;;;0.00;;
56333;SDS011;42240;53.626;55.886;2023-04-24T09:19:32;0.00;;;0.00;;
56333;SDS011;42240;53.626;55.886;2023-04-24T09:21:08;0.00;;;0.00;;
56333;SDS011;42240;53.626;55.886;2023-04-24T09:22:42;0.00;;;0.00;;
56333;SDS011;42240;53.626;55.886;2023-04-24T09:24:19;0.00;;;0.00;;
56333;SDS011;42240;53.626;55.886;2023-04-24T09:25:58;0.00;;;0.00;;
56333;SDS011;42240;53.626;55.886;2023-04-24T09:27:32;0.00;;;0.00;;
56333;SDS011;42240;53.626;55.886;2023-04-24T09:29:06;0.00;;;0.00;;
56333;SDS011;42240;53.626;55.886;2023-04-24T09:30:40;0.00;;;0.00;;
56333;SDS011;42240;53.626;55.886;2023-04-24T09:32:20;0.00;;;0.00;;
56333;SDS011;42240;53.626;55.886;2023-04-24T09:33:56;0.00;;;0.00;;
56333;SDS011;42240;53.626;55.886;2023-04-24T09:35:33;0.00;;;0.00;;
56333;SDS011;42240;53.626;55.886;2023-04-24T09:37:06;0.00;;;0.00;;
56333;SDS011;42240;53.626;55.886;2023-04-24T09:38:39;0.00;;;0.00;;
56333;SDS011;42240;53.626;55.886;2023-04-24T09:40:22;0.00;;;0.00;;
56333;SDS011;42240;53.626;55.886;2023-04-24T09:42:00;0.00;;;0.00;;
56333;SDS011;42240;53.626;55.886;2023-04-24T09:43:38;0.00;;;0.00;;
56333;SDS011;42240;53.626;55.886;2023-04-24T09:45:11;0.00;;;0.00;;